Airfield :
LOGIN :

Register | Disclaimer

   EN    FR    IT 

 










Legend :    VFR   Marginal VFR   IFR   Intensive IFR   Very Intensive IFR
Visi :
Ceiling :
>= 8 km
>= 3000ft
5 to 8 km
1000 to 3000 ft
1500m to 5 km
500 to 1000 ft
800 to 1500m
200 to 500 ft
< 800m
< 200 ft
Symbols :   Thunderstorms  Fog  Heavy snow  Heavy precipitations  Wind > 20 kt
SIGMETs :     Misc.  Thunderstorms  Icing  Turbulence  Mountain Waves  Volcanic Ashes






- Airport Elevation : 1300 ft
- IATA code : LIG


LFBL - Limoges

CURRENT METAR :
  • 270030Z AUTO 14006KT 9999 FEW034 SCT040 BKN050 02/M02 Q1018 TEMPO 4000 -RA BKN009

EXPIRED METARs :
  • 270000Z AUTO 15006KT 9999 BKN039 BKN048 OVC054 03/M02 Q1019 TEMPO 4000 -RA BKN009
  • 262330Z AUTO 14005KT 9999 SCT038 BKN047 OVC060 03/M03 Q1019 TEMPO 4000 -RA BKN009
  • 262300Z AUTO 14005KT 110V170 9999 BKN041 BKN047 OVC054 03/M03 Q1019 TEMPO 4000 -RA BKN009
  • 262230Z AUTO 13006KT 9999 BKN044 OVC050 03/M03 Q1019 TEMPO 4000 -RA BKN009
  • 262200Z AUTO 14007KT 9999 BKN044 BKN074 OVC160 03/M03 Q1019 TEMPO 4000 -RA BKN009

TAF TAF LFBL
Valid from the 27 at 00:00 until the 28 at 00:00 UTC


262300Z 2700/2724 14005KT 9999 BKN020 OVC035
TEMPO 2700/2703 4000 -RA BKN009
BECMG 2703/2704 OVC014
TEMPO 2704/2724 1200 -DZRA OVC002
TEMPO 2717/2721 -RA
ATIS : +33 5 55 48 40 37



MET'MAP, your aeronautical weather chart ! - Copyright ORBIFLY December 2007 - Disclaimer

ORBIFLY MET'MAP TEAM :

Programming & Development : Alexandra Zaïnal
Concept & original design : Baudouin d'Aumeries
Assistance for programming : Marc-Olivier Méhu
Technical & hardware support : Manuel Goepfert

Contact : metmap@orbifly.com




SOURCES & CREDITS :

   NOAA